createdAt,value
2018-05-06T00:00:36.138Z,1.30
2018-05-06T00:03:03.630Z,0.97
2018-05-06T00:05:31.242Z,1.53
2018-05-06T00:07:58.845Z,0.80
2018-05-06T00:10:26.335Z,0.97
2018-05-06T00:12:53.802Z,0.90
2018-05-06T00:15:21.476Z,1.00
2018-05-06T00:17:48.876Z,0.90
2018-05-06T00:20:16.324Z,1.40
2018-05-06T00:22:43.805Z,0.90
2018-05-06T00:25:12.045Z,1.03
2018-05-06T00:27:39.579Z,1.20
2018-05-06T00:30:07.059Z,0.97
2018-05-06T00:32:34.570Z,1.23
2018-05-06T00:35:02.082Z,0.80
2018-05-06T00:37:29.708Z,0.70
2018-05-06T00:39:57.170Z,1.00
2018-05-06T00:42:24.670Z,1.40
2018-05-06T00:44:52.238Z,0.87
2018-05-06T00:47:20.472Z,0.77
2018-05-06T00:49:47.956Z,0.73
2018-05-06T00:52:15.468Z,0.70
2018-05-06T00:54:43.773Z,1.43
2018-05-06T00:57:11.287Z,0.70
2018-05-06T00:59:39.576Z,1.03
2018-05-06T01:02:07.142Z,1.00
2018-05-06T01:04:34.662Z,0.77
2018-05-06T01:07:02.273Z,0.90
2018-05-06T01:09:29.737Z,0.87
2018-05-06T01:11:57.255Z,0.80
2018-05-06T01:14:25.528Z,0.80
2018-05-06T01:16:53.924Z,0.60
2018-05-06T01:19:21.420Z,0.50
2018-05-06T01:21:49.014Z,0.80
2018-05-06T01:24:16.470Z,0.73
2018-05-06T01:26:44.755Z,0.73
2018-05-06T01:29:13.029Z,0.60
2018-05-06T01:31:40.624Z,0.73
2018-05-06T01:34:08.094Z,0.87
2018-05-06T01:36:35.560Z,0.70
2018-05-06T01:39:03.154Z,1.00
2018-05-06T01:41:30.707Z,0.63
2018-05-06T01:43:58.280Z,0.60
2018-05-06T01:46:26.524Z,0.80
2018-05-06T01:48:54.057Z,0.60
2018-05-06T01:51:21.563Z,0.83
2018-05-06T01:53:49.063Z,0.57
2018-05-06T01:56:16.565Z,0.83
2018-05-06T01:58:44.166Z,0.80
2018-05-06T02:01:12.419Z,1.20
2018-05-06T02:03:39.913Z,0.90
2018-05-06T02:06:07.451Z,0.63
2018-05-06T02:08:35.741Z,0.80
2018-05-06T02:11:03.389Z,0.70
2018-05-06T02:13:31.671Z,0.60
2018-05-06T02:15:59.931Z,0.60
2018-05-06T02:18:27.452Z,0.70
2018-05-06T02:20:54.917Z,0.80
2018-05-06T02:23:22.455Z,0.80
2018-05-06T02:25:49.940Z,0.60
2018-05-06T02:28:17.455Z,0.57
2018-05-06T02:30:44.998Z,0.80
2018-05-06T02:33:13.288Z,0.50
2018-05-06T02:35:40.814Z,0.73
2018-05-06T02:38:08.306Z,0.70
2018-05-06T02:40:35.800Z,0.70
2018-05-06T02:43:03.312Z,0.70
2018-05-06T02:45:30.807Z,0.70
2018-05-06T02:47:58.327Z,0.70
2018-05-06T02:50:26.712Z,0.73
2018-05-06T02:52:54.178Z,0.70
2018-05-06T02:55:21.694Z,0.70
2018-05-06T02:57:49.187Z,0.70
2018-05-06T03:00:16.714Z,0.60
2018-05-06T03:02:44.221Z,0.67
2018-05-06T03:05:11.708Z,0.60
2018-05-06T03:07:39.174Z,0.90
2018-05-06T03:10:06.690Z,0.97
2018-05-06T03:12:35.637Z,0.57
2018-05-06T03:15:03.184Z,0.80
2018-05-06T03:17:30.696Z,0.60
2018-05-06T03:19:58.272Z,0.50
2018-05-06T03:22:25.782Z,0.70
2018-05-06T03:24:54.036Z,0.60
2018-05-06T03:27:21.570Z,0.63
2018-05-06T03:29:49.063Z,0.87
2018-05-06T03:32:16.654Z,0.60
2018-05-06T03:34:44.317Z,1.00
2018-05-06T03:37:11.840Z,0.90
2018-05-06T03:39:39.345Z,1.00
2018-05-06T03:42:06.808Z,0.90
2018-05-06T03:44:34.356Z,0.70
2018-05-06T03:47:01.886Z,0.60
2018-05-06T03:49:29.381Z,0.80
2018-05-06T03:51:56.846Z,0.67
2018-05-06T03:54:24.340Z,0.70
2018-05-06T03:57:05.198Z,0.50
2018-05-06T03:59:44.660Z,0.60
2018-05-06T04:02:41.809Z,0.80
2018-05-06T04:05:09.288Z,1.00
2018-05-06T04:07:37.556Z,0.67
2018-05-06T04:10:05.136Z,0.70
2018-05-06T04:12:33.383Z,0.70
2018-05-06T04:15:00.867Z,0.80
2018-05-06T04:17:29.129Z,0.60
2018-05-06T04:19:57.408Z,0.47
2018-05-06T04:22:24.906Z,0.70
2018-05-06T04:24:52.428Z,0.70
2018-05-06T04:27:20.179Z,0.60
2018-05-06T04:29:48.486Z,1.20
2018-05-06T04:32:15.994Z,0.70
2018-05-06T04:34:43.450Z,0.90
2018-05-06T04:37:10.916Z,0.60
2018-05-06T04:39:38.398Z,0.80
2018-05-06T04:42:06.664Z,0.90
2018-05-06T04:44:34.930Z,0.60
2018-05-06T04:47:02.425Z,0.60
2018-05-06T04:49:29.921Z,1.00
2018-05-06T04:51:57.443Z,0.70
2018-05-06T04:54:24.924Z,0.93
2018-05-06T04:56:52.894Z,0.80
2018-05-06T04:59:20.401Z,0.67
2018-05-06T05:01:47.912Z,0.80
2018-05-06T05:04:15.395Z,1.03
2018-05-06T05:06:42.874Z,0.60
2018-05-06T05:09:11.138Z,0.70
2018-05-06T05:11:38.602Z,0.83
2018-05-06T05:14:06.161Z,0.60
2018-05-06T05:16:33.648Z,0.80
2018-05-06T05:19:01.177Z,0.87
2018-05-06T05:21:28.665Z,0.70
2018-05-06T05:23:56.190Z,0.83
2018-05-06T05:26:23.693Z,1.10
2018-05-06T05:28:51.220Z,0.73
2018-05-06T05:31:19.451Z,0.80
2018-05-06T05:33:47.000Z,0.70
2018-05-06T05:36:14.512Z,0.70
2018-05-06T05:38:42.816Z,0.60
2018-05-06T05:41:10.366Z,0.90
2018-05-06T05:43:38.615Z,0.77
2018-05-06T05:46:06.111Z,0.70
2018-05-06T05:48:33.631Z,0.83
2018-05-06T05:51:01.114Z,1.07
2018-05-06T05:53:29.486Z,0.60
2018-05-06T05:55:57.746Z,1.07
2018-05-06T05:58:26.013Z,0.60
2018-05-06T06:00:53.525Z,0.90
2018-05-06T06:03:21.009Z,0.70
2018-05-06T06:05:48.625Z,0.67
2018-05-06T06:08:16.109Z,0.83
2018-05-06T06:10:43.635Z,0.50
2018-05-06T06:13:11.895Z,0.50
2018-05-06T06:15:39.513Z,0.50
2018-05-06T06:18:07.145Z,0.60
2018-05-06T06:20:34.701Z,0.77
2018-05-06T06:23:02.250Z,0.60
2018-05-06T06:25:30.488Z,0.60
2018-05-06T06:27:57.991Z,0.63
2018-05-06T06:30:26.291Z,0.60
2018-05-06T06:32:53.850Z,0.60
2018-05-06T06:35:21.299Z,1.00
2018-05-06T06:37:48.775Z,0.60
2018-05-06T06:40:16.270Z,4.53
2018-05-06T06:42:43.801Z,2.53
2018-05-06T06:45:11.331Z,1.30
2018-05-06T06:47:38.861Z,0.70
2018-05-06T06:50:07.149Z,0.50
2018-05-06T06:52:35.425Z,0.50
2018-05-06T06:55:03.685Z,0.60
2018-05-06T06:57:31.931Z,0.53
2018-05-06T06:59:59.433Z,0.53
2018-05-06T07:02:27.797Z,0.60
2018-05-06T07:04:55.344Z,0.50
2018-05-06T07:07:22.845Z,0.80
2018-05-06T07:09:50.334Z,0.97
2018-05-06T07:12:17.825Z,0.60
2018-05-06T07:14:45.311Z,0.70
2018-05-06T07:17:12.816Z,0.50
2018-05-06T07:19:40.308Z,0.50
2018-05-06T07:22:08.534Z,0.57
2018-05-06T07:24:36.019Z,0.60
2018-05-06T07:27:03.591Z,0.77
2018-05-06T07:29:31.054Z,0.67
2018-05-06T07:31:59.323Z,0.87
2018-05-06T07:34:26.897Z,0.40
2018-05-06T07:36:55.165Z,0.70
2018-05-06T07:39:23.423Z,1.90
2018-05-06T07:41:50.911Z,0.73
2018-05-06T07:44:19.161Z,0.77
2018-05-06T07:46:46.665Z,0.50
2018-05-06T07:49:14.172Z,0.50
2018-05-06T07:51:41.664Z,0.80
2018-05-06T07:54:09.928Z,1.20
2018-05-06T07:56:38.233Z,1.03
2018-05-06T07:59:05.773Z,0.53
2018-05-06T08:01:34.039Z,0.60
2018-05-06T08:04:02.431Z,0.63
2018-05-06T08:06:30.692Z,0.67
2018-05-06T08:08:59.007Z,0.70
2018-05-06T08:11:26.512Z,0.50
2018-05-06T08:13:54.804Z,0.63
2018-05-06T08:16:23.191Z,0.80
2018-05-06T08:18:50.610Z,0.70
2018-05-06T08:21:18.090Z,0.77
2018-05-06T08:23:45.611Z,0.80
2018-05-06T08:26:13.074Z,0.70
2018-05-06T08:28:40.550Z,1.00
2018-05-06T08:31:08.076Z,0.67
2018-05-06T08:33:35.617Z,0.80
2018-05-06T08:36:03.120Z,0.53
2018-05-06T08:38:30.642Z,0.80
2018-05-06T08:40:58.117Z,1.20
2018-05-06T08:43:25.623Z,0.67
2018-05-06T08:45:54.010Z,0.70
2018-05-06T08:48:21.434Z,1.00
2018-05-06T08:50:48.932Z,0.80
2018-05-06T08:53:16.616Z,0.50
2018-05-06T08:55:44.112Z,0.70
2018-05-06T08:58:11.721Z,0.93
2018-05-06T09:00:39.231Z,1.20
2018-05-06T09:03:08.253Z,0.80
2018-05-06T09:05:36.537Z,1.30
2018-05-06T09:08:04.066Z,1.43
2018-05-06T09:10:31.562Z,0.80
2018-05-06T09:12:59.034Z,0.70
2018-05-06T09:15:26.570Z,0.60
2018-05-06T09:17:54.812Z,0.90
2018-05-06T09:20:22.299Z,1.00
2018-05-06T09:22:50.539Z,0.73
2018-05-06T09:25:18.153Z,0.80
2018-05-06T09:27:45.626Z,0.57
2018-05-06T09:30:13.143Z,0.87
2018-05-06T09:32:41.405Z,1.40
2018-05-06T09:35:08.937Z,1.13
2018-05-06T09:37:36.468Z,1.37
2018-05-06T09:40:04.737Z,1.93
2018-05-06T09:42:32.274Z,1.70
2018-05-06T09:45:00.561Z,0.87
2018-05-06T09:47:28.819Z,0.90
2018-05-06T09:49:56.345Z,1.53
2018-05-06T09:52:23.847Z,1.30
2018-05-06T09:54:52.117Z,2.20
2018-05-06T09:57:20.518Z,1.50
2018-05-06T09:59:48.076Z,1.23
2018-05-06T10:02:15.539Z,1.57
2018-05-06T10:04:43.097Z,1.67
2018-05-06T10:07:10.590Z,1.80
2018-05-06T10:09:39.070Z,1.40
2018-05-06T10:12:06.580Z,1.20
2018-05-06T10:14:34.087Z,1.60
2018-05-06T10:17:01.585Z,1.20
2018-05-06T10:19:29.861Z,1.60
2018-05-06T10:21:57.343Z,1.60
2018-05-06T10:24:24.912Z,1.23
2018-05-06T10:26:52.429Z,1.07
2018-05-06T10:29:20.706Z,2.40
2018-05-06T10:31:48.933Z,1.60
2018-05-06T10:34:17.521Z,2.80
2018-05-06T10:36:44.998Z,2.23
2018-05-06T10:39:12.513Z,1.47
2018-05-06T10:41:40.005Z,2.00
2018-05-06T10:44:07.559Z,1.60
2018-05-06T10:46:35.078Z,1.90
2018-05-06T10:49:02.712Z,1.73
2018-05-06T10:51:30.212Z,1.70
2018-05-06T10:53:57.701Z,1.30
2018-05-06T10:56:25.295Z,1.50
2018-05-06T10:58:53.585Z,0.90
2018-05-06T11:01:22.555Z,1.43
2018-05-06T11:03:50.267Z,1.83
2018-05-06T11:06:17.777Z,1.93
2018-05-06T11:08:46.077Z,1.93
2018-05-06T11:11:13.629Z,1.43
2018-05-06T11:13:41.153Z,1.40
2018-05-06T11:16:08.755Z,2.13
2018-05-06T11:18:36.289Z,1.93
2018-05-06T11:21:04.579Z,2.33
2018-05-06T11:23:32.944Z,2.40
2018-05-06T11:26:01.196Z,1.57
2018-05-06T11:28:28.707Z,2.20
2018-05-06T11:30:56.194Z,1.50
2018-05-06T11:33:23.756Z,1.90
2018-05-06T11:35:51.192Z,1.07
2018-05-06T11:38:18.678Z,2.60
2018-05-06T11:40:46.193Z,1.83
2018-05-06T11:43:13.689Z,1.70
2018-05-06T11:45:41.161Z,1.30
2018-05-06T11:48:08.760Z,1.10
2018-05-06T11:50:36.200Z,1.73
2018-05-06T11:53:04.471Z,1.03
2018-05-06T11:55:32.757Z,0.87
2018-05-06T11:58:01.018Z,8.60
2018-05-06T12:00:29.280Z,11.20
2018-05-06T12:02:56.776Z,10.83
2018-05-06T12:05:24.255Z,6.73
2018-05-06T12:07:51.784Z,5.03
2018-05-06T12:10:19.299Z,4.80
2018-05-06T12:12:46.863Z,4.20
2018-05-06T12:15:14.451Z,4.20
2018-05-06T12:17:42.699Z,3.23
2018-05-06T12:20:10.230Z,3.60
2018-05-06T12:22:37.728Z,3.00
2018-05-06T12:25:06.026Z,3.03
2018-05-06T12:27:33.503Z,2.60
2018-05-06T12:30:01.025Z,2.93
2018-05-06T12:32:29.285Z,2.33
2018-05-06T12:34:56.783Z,2.53
2018-05-06T12:37:24.275Z,2.37
2018-05-06T12:39:51.793Z,1.60
2018-05-06T12:42:19.291Z,2.00
2018-05-06T12:44:46.804Z,2.33
2018-05-06T12:47:14.279Z,2.33
2018-05-06T12:49:41.779Z,1.90
2018-05-06T12:52:09.289Z,1.37
2018-05-06T12:54:36.793Z,2.60
2018-05-06T12:57:04.291Z,1.17
2018-05-06T12:59:32.567Z,1.90
2018-05-06T13:02:00.093Z,1.33
2018-05-06T13:04:28.373Z,1.40
2018-05-06T13:06:56.081Z,2.03
2018-05-06T13:09:23.602Z,1.43
2018-05-06T13:11:51.917Z,1.33
2018-05-06T13:14:19.415Z,1.40
2018-05-06T13:16:46.937Z,2.20
2018-05-06T13:19:14.445Z,1.43
2018-05-06T13:21:41.919Z,1.30
2018-05-06T13:24:10.279Z,2.10
2018-05-06T13:26:37.702Z,1.23
2018-05-06T13:29:05.181Z,0.87
2018-05-06T13:31:32.692Z,1.50
2018-05-06T13:34:00.203Z,1.10
2018-05-06T13:36:27.842Z,1.10
2018-05-06T13:38:55.334Z,1.53
2018-05-06T13:41:22.835Z,0.80
2018-05-06T13:43:50.374Z,0.90
2018-05-06T13:46:17.836Z,1.30
2018-05-06T13:48:45.336Z,0.83
2018-05-06T13:51:12.847Z,1.20
2018-05-06T13:53:41.078Z,1.13
2018-05-06T13:56:08.576Z,0.90
2018-05-06T13:58:36.830Z,0.97
2018-05-06T14:01:04.330Z,1.00
2018-05-06T14:03:31.814Z,0.80
2018-05-06T14:05:59.316Z,1.20
2018-05-06T14:08:27.621Z,0.80
2018-05-06T14:10:55.096Z,0.60
2018-05-06T14:13:22.616Z,0.83
2018-05-06T14:15:50.908Z,0.77
2018-05-06T14:18:19.884Z,1.50
2018-05-06T14:20:48.140Z,1.23
2018-05-06T14:23:15.605Z,0.93
2018-05-06T14:25:43.183Z,0.63
2018-05-06T14:28:11.441Z,0.93
2018-05-06T14:30:39.714Z,0.80
2018-05-06T14:33:07.230Z,0.80
2018-05-06T14:35:34.742Z,1.00
2018-05-06T14:38:03.059Z,0.60
2018-05-06T14:40:30.556Z,0.90
2018-05-06T14:42:58.087Z,0.90
2018-05-06T14:45:25.607Z,0.80
2018-05-06T14:48:04.930Z,0.70
2018-05-06T14:50:33.198Z,0.67
2018-05-06T14:53:01.467Z,0.97
2018-05-06T14:55:29.076Z,0.60
2018-05-06T14:57:56.555Z,0.67
2018-05-06T15:00:24.067Z,0.60
2018-05-06T15:02:52.349Z,0.50
2018-05-06T15:05:20.603Z,0.50
2018-05-06T15:07:48.525Z,0.70
2018-05-06T15:10:16.049Z,0.80
2018-05-06T15:12:43.537Z,0.60
2018-05-06T15:15:11.044Z,0.50
2018-05-06T15:17:39.313Z,0.70
2018-05-06T15:20:06.842Z,0.70
2018-05-06T15:22:34.348Z,0.87
2018-05-06T15:25:02.590Z,0.57
2018-05-06T15:27:30.090Z,0.60
2018-05-06T15:29:58.506Z,0.60
2018-05-06T15:32:26.132Z,0.80
2018-05-06T15:34:54.369Z,0.80
2018-05-06T15:37:21.897Z,0.50
2018-05-06T15:39:49.400Z,0.60
2018-05-06T15:42:16.880Z,0.63
2018-05-06T15:44:45.230Z,0.50
2018-05-06T15:47:12.724Z,0.50
2018-05-06T15:49:40.258Z,0.50
2018-05-06T15:52:07.872Z,0.40
2018-05-06T15:54:35.371Z,0.60
2018-05-06T15:57:03.628Z,0.50
2018-05-06T15:59:31.154Z,0.60
2018-05-06T16:02:06.650Z,0.50
2018-05-06T16:04:34.256Z,0.40
2018-05-06T16:07:01.810Z,0.67
2018-05-06T16:09:29.324Z,0.77
2018-05-06T16:11:56.857Z,0.70
2018-05-06T16:14:24.306Z,0.60
2018-05-06T16:16:51.845Z,0.50
2018-05-06T16:19:19.356Z,0.83
2018-05-06T16:21:46.819Z,0.60
2018-05-06T16:24:14.451Z,0.60
2018-05-06T16:26:42.032Z,0.57
2018-05-06T16:29:09.507Z,0.70
2018-05-06T16:31:36.976Z,0.67
2018-05-06T16:34:05.246Z,0.40
2018-05-06T16:36:33.526Z,0.40
2018-05-06T16:39:01.794Z,0.50
2018-05-06T16:41:30.021Z,0.50
2018-05-06T16:43:57.538Z,0.50
2018-05-06T16:46:25.792Z,0.60
2018-05-06T16:48:53.312Z,0.60
2018-05-06T16:51:20.781Z,0.50
2018-05-06T16:53:48.303Z,0.50
2018-05-06T16:56:15.771Z,0.50
2018-05-06T16:58:43.283Z,0.67
2018-05-06T17:01:10.778Z,0.50
2018-05-06T17:03:38.278Z,0.60
2018-05-06T17:06:05.791Z,0.57
2018-05-06T17:08:33.318Z,0.50
2018-05-06T17:11:00.814Z,0.60
2018-05-06T17:13:28.355Z,0.83
2018-05-06T17:15:56.589Z,0.90
2018-05-06T17:18:24.110Z,1.07
2018-05-06T17:20:52.616Z,0.67
2018-05-06T17:23:20.090Z,0.87
2018-05-06T17:25:47.717Z,0.77
2018-05-06T17:28:15.239Z,0.90
2018-05-06T17:30:43.532Z,1.40
2018-05-06T17:33:11.021Z,0.90
2018-05-06T17:35:38.497Z,0.70
2018-05-06T17:38:06.021Z,0.87
2018-05-06T17:40:33.592Z,0.70
2018-05-06T17:43:01.093Z,1.00
2018-05-06T17:45:28.631Z,0.90
2018-05-06T17:47:56.152Z,0.97
2018-05-06T17:50:23.636Z,1.10
2018-05-06T17:52:51.125Z,0.70
2018-05-06T17:55:18.707Z,0.67
2018-05-06T17:57:46.957Z,0.70
2018-05-06T18:00:14.446Z,0.80
2018-05-06T18:02:41.908Z,0.80
2018-05-06T18:05:10.168Z,0.97
2018-05-06T18:07:38.540Z,0.63
2018-05-06T18:10:05.971Z,0.93
2018-05-06T18:12:33.440Z,0.50
2018-05-06T18:15:00.966Z,0.60
2018-05-06T18:17:28.439Z,0.90
2018-05-06T18:19:55.958Z,0.50
2018-05-06T18:22:23.467Z,0.70
2018-05-06T18:24:51.052Z,0.70
2018-05-06T18:27:19.316Z,0.60
2018-05-06T18:29:46.820Z,0.60
2018-05-06T18:32:14.433Z,0.70
2018-05-06T18:34:41.889Z,0.50
2018-05-06T18:37:09.538Z,1.23
2018-05-06T18:39:37.047Z,0.60
2018-05-06T18:42:04.536Z,1.00
2018-05-06T18:44:32.037Z,0.90
2018-05-06T18:47:00.335Z,1.00
2018-05-06T18:49:27.818Z,0.87
2018-05-06T18:51:55.341Z,0.83
2018-05-06T18:54:22.856Z,0.70
2018-05-06T18:56:50.343Z,0.50
2018-05-06T18:59:18.527Z,1.27
2018-05-06T19:01:46.793Z,0.80
2018-05-06T19:04:15.022Z,1.03
2018-05-06T19:06:42.549Z,0.90
2018-05-06T19:09:10.059Z,0.60
2018-05-06T19:11:37.590Z,0.93
2018-05-06T19:14:05.124Z,0.60
2018-05-06T19:16:32.668Z,0.53
2018-05-06T19:19:00.949Z,0.80
2018-05-06T19:21:29.247Z,0.93
2018-05-06T19:23:56.750Z,0.70
2018-05-06T19:26:24.284Z,0.60
2018-05-06T19:28:51.791Z,0.83
2018-05-06T19:31:20.050Z,0.90
2018-05-06T19:33:47.558Z,0.70
2018-05-06T19:36:15.098Z,0.70
2018-05-06T19:38:42.605Z,0.50
2018-05-06T19:41:10.134Z,0.80
2018-05-06T19:43:37.627Z,0.70
2018-05-06T19:46:05.212Z,0.50
2018-05-06T19:48:32.710Z,0.77
2018-05-06T19:51:00.216Z,0.77
2018-05-06T19:53:27.717Z,0.60
2018-05-06T19:55:55.240Z,0.60
2018-05-06T19:58:22.713Z,0.90
2018-05-06T20:00:51.022Z,0.57
2018-05-06T20:03:18.578Z,0.70
2018-05-06T20:05:46.061Z,1.30
2018-05-06T20:08:13.528Z,0.70
2018-05-06T20:10:41.007Z,0.50
2018-05-06T20:13:09.322Z,0.60
2018-05-06T20:15:36.767Z,0.50
2018-05-06T20:18:04.365Z,0.70
2018-05-06T20:20:31.807Z,0.70
2018-05-06T20:22:59.274Z,0.60
2018-05-06T20:25:26.765Z,0.50
2018-05-06T20:27:54.285Z,0.73
2018-05-06T20:30:21.793Z,0.50
2018-05-06T20:32:50.083Z,0.53
2018-05-06T20:35:18.462Z,0.50
2018-05-06T20:37:45.988Z,0.53
2018-05-06T20:40:14.269Z,0.70
2018-05-06T20:42:41.858Z,0.40
2018-05-06T20:45:10.113Z,0.40
2018-05-06T20:47:38.399Z,0.63
2018-05-06T20:50:06.671Z,2.70
2018-05-06T20:52:34.958Z,0.40
2018-05-06T20:55:03.210Z,0.70
2018-05-06T20:57:30.675Z,0.60
2018-05-06T21:00:00.258Z,0.60
2018-05-06T21:02:27.751Z,0.50
2018-05-06T21:04:56.017Z,0.50
2018-05-06T21:07:24.333Z,0.70
2018-05-06T21:09:51.869Z,0.60
2018-05-06T21:12:20.122Z,0.70
2018-05-06T21:14:47.631Z,0.90
2018-05-06T21:17:15.269Z,0.40
2018-05-06T21:19:43.160Z,0.57
2018-05-06T21:22:10.868Z,0.80
2018-05-06T21:24:38.444Z,0.50
2018-05-06T21:27:06.705Z,0.80
2018-05-06T21:29:34.180Z,0.50
2018-05-06T21:32:02.478Z,0.73
2018-05-06T21:34:30.020Z,0.60
2018-05-06T21:36:58.302Z,0.40
2018-05-06T21:39:26.560Z,0.57
2018-05-06T21:41:54.058Z,0.60
2018-05-06T21:44:21.560Z,0.60
2018-05-06T21:46:49.060Z,0.60
2018-05-06T21:49:16.570Z,0.60
2018-05-06T21:51:44.157Z,0.50
2018-05-06T21:54:12.485Z,0.40
2018-05-06T21:56:39.987Z,1.00
2018-05-06T21:59:07.462Z,0.50
2018-05-06T22:01:35.720Z,1.27
2018-05-06T22:04:03.249Z,0.40
2018-05-06T22:06:30.770Z,0.80
2018-05-06T22:08:58.268Z,0.80
2018-05-06T22:11:25.760Z,0.50
2018-05-06T22:13:54.660Z,0.50
2018-05-06T22:16:22.916Z,0.70
2018-05-06T22:18:50.422Z,0.40
2018-05-06T22:21:17.892Z,0.50
2018-05-06T22:23:45.500Z,0.50
2018-05-06T22:26:13.746Z,0.60
2018-05-06T22:28:41.217Z,0.63
2018-05-06T22:31:08.797Z,0.50
2018-05-06T22:33:37.037Z,0.73
2018-05-06T22:36:04.576Z,0.70
2018-05-06T22:38:32.070Z,0.40
2018-05-06T22:40:59.558Z,0.43
2018-05-06T22:43:27.072Z,0.50
2018-05-06T22:45:54.572Z,0.50
2018-05-06T22:48:22.856Z,0.60
2018-05-06T22:50:50.367Z,0.50
2018-05-06T22:53:18.621Z,0.57
2018-05-06T22:55:46.135Z,0.40
2018-05-06T22:58:14.385Z,0.43
2018-05-06T23:00:41.905Z,0.50
2018-05-06T23:03:09.460Z,0.40
2018-05-06T23:05:37.017Z,0.40
2018-05-06T23:08:04.470Z,0.50
2018-05-06T23:10:32.015Z,0.50
2018-05-06T23:12:59.534Z,0.60
2018-05-06T23:15:27.848Z,0.60
2018-05-06T23:17:55.378Z,0.47
2018-05-06T23:20:22.868Z,0.50
2018-05-06T23:22:50.423Z,0.47
2018-05-06T23:25:18.732Z,0.50
2018-05-06T23:27:46.348Z,0.40
2018-05-06T23:30:14.634Z,0.50
2018-05-06T23:32:42.894Z,0.60
2018-05-06T23:35:11.160Z,0.50
2018-05-06T23:37:38.672Z,0.40
2018-05-06T23:40:06.162Z,0.30
2018-05-06T23:42:33.647Z,0.70
2018-05-06T23:45:01.930Z,0.47
2018-05-06T23:47:29.416Z,0.60
2018-05-06T23:49:56.926Z,0.70
2018-05-06T23:52:24.424Z,0.50
2018-05-06T23:54:51.954Z,0.40
2018-05-06T23:57:20.215Z,0.60
2018-05-06T23:59:47.827Z,0.53
